sensor_id;sensor_type;location;lat;lon;timestamp;P1;durP1;ratioP1;P2;durP2;ratioP2
68234;SDS011;55052;52.056;5.296;2022-12-10T00:02:26;43.10;;;20.38;;
68234;SDS011;55052;52.056;5.296;2022-12-10T00:04:53;51.38;;;22.20;;
68234;SDS011;55052;52.056;5.296;2022-12-10T00:07:20;43.53;;;22.10;;
68234;SDS011;55052;52.056;5.296;2022-12-10T00:09:46;46.80;;;23.00;;
68234;SDS011;55052;52.056;5.296;2022-12-10T00:12:13;48.70;;;23.30;;
68234;SDS011;55052;52.056;5.296;2022-12-10T00:14:40;51.50;;;23.77;;
68234;SDS011;55052;52.056;5.296;2022-12-10T00:17:06;46.97;;;23.25;;
68234;SDS011;55052;52.056;5.296;2022-12-10T00:19:38;49.80;;;23.83;;
68234;SDS011;55052;52.056;5.296;2022-12-10T00:22:04;48.05;;;22.13;;
68234;SDS011;55052;52.056;5.296;2022-12-10T00:24:31;46.80;;;22.73;;
68234;SDS011;55052;52.056;5.296;2022-12-10T00:26:58;53.38;;;24.33;;
68234;SDS011;55052;52.056;5.296;2022-12-10T00:29:25;50.53;;;23.50;;
68234;SDS011;55052;52.056;5.296;2022-12-10T00:31:51;54.75;;;25.45;;
68234;SDS011;55052;52.056;5.296;2022-12-10T00:34:18;58.60;;;24.70;;
68234;SDS011;55052;52.056;5.296;2022-12-10T00:36:46;53.80;;;23.33;;
68234;SDS011;55052;52.056;5.296;2022-12-10T00:39:18;56.65;;;25.50;;
68234;SDS011;55052;52.056;5.296;2022-12-10T00:41:46;55.97;;;24.10;;
68234;SDS011;55052;52.056;5.296;2022-12-10T00:44:13;57.50;;;25.17;;
68234;SDS011;55052;52.056;5.296;2022-12-10T00:46:40;47.20;;;22.83;;
68234;SDS011;55052;52.056;5.296;2022-12-10T00:49:07;64.50;;;26.30;;
68234;SDS011;55052;52.056;5.296;2022-12-10T00:51:34;58.88;;;25.75;;
68234;SDS011;55052;52.056;5.296;2022-12-10T00:54:00;66.22;;;26.38;;
68234;SDS011;55052;52.056;5.296;2022-12-10T00:56:28;61.55;;;27.05;;
68234;SDS011;55052;52.056;5.296;2022-12-10T00:58:58;58.95;;;26.92;;
68234;SDS011;55052;52.056;5.296;2022-12-10T01:04:02;55.38;;;24.95;;
68234;SDS011;55052;52.056;5.296;2022-12-10T01:06:32;56.88;;;24.85;;
68234;SDS011;55052;52.056;5.296;2022-12-10T01:09:02;63.87;;;26.80;;
68234;SDS011;55052;52.056;5.296;2022-12-10T01:11:32;58.78;;;24.73;;
68234;SDS011;55052;52.056;5.296;2022-12-10T01:14:01;57.80;;;25.60;;
68234;SDS011;55052;52.056;5.296;2022-12-10T01:16:28;58.25;;;25.30;;
68234;SDS011;55052;52.056;5.296;2022-12-10T01:18:55;61.42;;;25.27;;
68234;SDS011;55052;52.056;5.296;2022-12-10T01:21:23;59.20;;;25.83;;
68234;SDS011;55052;52.056;5.296;2022-12-10T01:23:52;62.10;;;25.45;;
68234;SDS011;55052;52.056;5.296;2022-12-10T01:26:20;61.90;;;25.92;;
68234;SDS011;55052;52.056;5.296;2022-12-10T01:28:49;58.30;;;25.00;;
68234;SDS011;55052;52.056;5.296;2022-12-10T01:31:21;59.15;;;25.63;;
68234;SDS011;55052;52.056;5.296;2022-12-10T01:33:49;55.75;;;25.52;;
68234;SDS011;55052;52.056;5.296;2022-12-10T01:36:17;64.60;;;26.50;;
68234;SDS011;55052;52.056;5.296;2022-12-10T01:38:46;56.58;;;24.80;;
68234;SDS011;55052;52.056;5.296;2022-12-10T01:41:18;61.40;;;25.27;;
68234;SDS011;55052;52.056;5.296;2022-12-10T01:43:56;60.17;;;25.58;;
68234;SDS011;55052;52.056;5.296;2022-12-10T01:46:27;56.28;;;26.08;;
68234;SDS011;55052;52.056;5.296;2022-12-10T01:48:56;55.25;;;24.25;;
68234;SDS011;55052;52.056;5.296;2022-12-10T01:51:25;59.97;;;25.77;;
68234;SDS011;55052;52.056;5.296;2022-12-10T01:53:54;71.07;;;25.23;;
68234;SDS011;55052;52.056;5.296;2022-12-10T01:56:21;59.28;;;23.70;;
68234;SDS011;55052;52.056;5.296;2022-12-10T01:58:49;59.42;;;24.95;;
68234;SDS011;55052;52.056;5.296;2022-12-10T02:01:39;61.00;;;25.10;;
68234;SDS011;55052;52.056;5.296;2022-12-10T02:04:25;59.95;;;25.23;;
68234;SDS011;55052;52.056;5.296;2022-12-10T02:07:14;63.22;;;25.33;;
68234;SDS011;55052;52.056;5.296;2022-12-10T02:10:08;59.70;;;26.83;;
68234;SDS011;55052;52.056;5.296;2022-12-10T02:13:00;67.22;;;25.08;;
68234;SDS011;55052;52.056;5.296;2022-12-10T02:15:33;101.70;;;26.55;;
68234;SDS011;55052;52.056;5.296;2022-12-10T02:18:04;75.57;;;26.15;;
68234;SDS011;55052;52.056;5.296;2022-12-10T02:20:46;114.63;;;26.48;;
68234;SDS011;55052;52.056;5.296;2022-12-10T02:23:25;96.45;;;26.05;;
68234;SDS011;55052;52.056;5.296;2022-12-10T02:26:00;64.50;;;26.17;;
68234;SDS011;55052;52.056;5.296;2022-12-10T02:29:17;70.38;;;26.98;;
68234;SDS011;55052;52.056;5.296;2022-12-10T02:31:52;75.03;;;27.05;;
68234;SDS011;55052;52.056;5.296;2022-12-10T02:34:23;124.15;;;27.50;;
68234;SDS011;55052;52.056;5.296;2022-12-10T02:36:53;64.67;;;25.53;;
68234;SDS011;55052;52.056;5.296;2022-12-10T02:39:24;83.05;;;25.10;;
68234;SDS011;55052;52.056;5.296;2022-12-10T02:41:55;66.78;;;24.60;;
68234;SDS011;55052;52.056;5.296;2022-12-10T02:46:55;77.72;;;24.42;;
68234;SDS011;55052;52.056;5.296;2022-12-10T02:49:23;102.60;;;25.55;;
68234;SDS011;55052;52.056;5.296;2022-12-10T02:51:52;83.70;;;25.15;;
68234;SDS011;55052;52.056;5.296;2022-12-10T02:57:03;80.45;;;21.02;;
68234;SDS011;55052;52.056;5.296;2022-12-10T02:59:54;96.88;;;21.15;;
68234;SDS011;55052;52.056;5.296;2022-12-10T03:07:41;84.20;;;23.70;;
68234;SDS011;55052;52.056;5.296;2022-12-10T03:10:17;63.67;;;22.00;;
68234;SDS011;55052;52.056;5.296;2022-12-10T03:12:47;84.43;;;21.23;;
68234;SDS011;55052;52.056;5.296;2022-12-10T03:15:17;54.55;;;22.17;;
68234;SDS011;55052;52.056;5.296;2022-12-10T03:17:45;56.15;;;22.92;;
68234;SDS011;55052;52.056;5.296;2022-12-10T03:20:13;61.03;;;21.90;;
68234;SDS011;55052;52.056;5.296;2022-12-10T03:22:43;86.15;;;25.00;;
68234;SDS011;55052;52.056;5.296;2022-12-10T03:25:13;116.95;;;23.95;;
68234;SDS011;55052;52.056;5.296;2022-12-10T03:27:43;91.75;;;24.20;;
68234;SDS011;55052;52.056;5.296;2022-12-10T03:30:12;63.60;;;23.45;;
68234;SDS011;55052;52.056;5.296;2022-12-10T03:32:39;70.40;;;23.13;;
68234;SDS011;55052;52.056;5.296;2022-12-10T03:35:05;84.32;;;24.20;;
68234;SDS011;55052;52.056;5.296;2022-12-10T03:37:33;62.92;;;22.50;;
68234;SDS011;55052;52.056;5.296;2022-12-10T03:40:00;88.93;;;21.88;;
68234;SDS011;55052;52.056;5.296;2022-12-10T03:42:28;82.05;;;23.60;;
68234;SDS011;55052;52.056;5.296;2022-12-10T03:44:55;83.00;;;24.77;;
68234;SDS011;55052;52.056;5.296;2022-12-10T03:47:21;61.90;;;22.52;;
68234;SDS011;55052;52.056;5.296;2022-12-10T03:49:49;104.18;;;23.73;;
68234;SDS011;55052;52.056;5.296;2022-12-10T03:52:16;76.90;;;22.70;;
68234;SDS011;55052;52.056;5.296;2022-12-10T03:54:42;56.65;;;21.63;;
68234;SDS011;55052;52.056;5.296;2022-12-10T03:57:09;66.40;;;22.63;;
68234;SDS011;55052;52.056;5.296;2022-12-10T03:59:36;57.17;;;20.83;;
68234;SDS011;55052;52.056;5.296;2022-12-10T04:02:03;69.22;;;22.50;;
68234;SDS011;55052;52.056;5.296;2022-12-10T04:04:30;87.55;;;23.88;;
68234;SDS011;55052;52.056;5.296;2022-12-10T04:06:57;95.90;;;25.80;;
68234;SDS011;55052;52.056;5.296;2022-12-10T04:09:24;97.68;;;23.45;;
68234;SDS011;55052;52.056;5.296;2022-12-10T04:11:54;68.50;;;23.92;;
68234;SDS011;55052;52.056;5.296;2022-12-10T04:14:22;80.25;;;23.88;;
68234;SDS011;55052;52.056;5.296;2022-12-10T04:17:07;69.28;;;21.63;;
68234;SDS011;55052;52.056;5.296;2022-12-10T04:19:34;63.67;;;22.88;;
68234;SDS011;55052;52.056;5.296;2022-12-10T04:22:01;105.22;;;26.27;;
68234;SDS011;55052;52.056;5.296;2022-12-10T04:24:47;65.53;;;23.52;;
68234;SDS011;55052;52.056;5.296;2022-12-10T04:27:33;83.25;;;27.33;;
68234;SDS011;55052;52.056;5.296;2022-12-10T04:30:03;128.93;;;29.45;;
68234;SDS011;55052;52.056;5.296;2022-12-10T04:32:32;63.33;;;27.10;;
68234;SDS011;55052;52.056;5.296;2022-12-10T04:34:58;67.57;;;25.63;;
68234;SDS011;55052;52.056;5.296;2022-12-10T04:37:26;154.48;;;28.40;;
68234;SDS011;55052;52.056;5.296;2022-12-10T04:39:53;60.45;;;24.60;;
68234;SDS011;55052;52.056;5.296;2022-12-10T04:42:21;83.07;;;26.50;;
68234;SDS011;55052;52.056;5.296;2022-12-10T04:44:48;78.90;;;27.25;;
68234;SDS011;55052;52.056;5.296;2022-12-10T04:47:15;87.90;;;28.98;;
68234;SDS011;55052;52.056;5.296;2022-12-10T04:49:42;81.07;;;28.02;;
68234;SDS011;55052;52.056;5.296;2022-12-10T04:52:10;102.32;;;28.45;;
68234;SDS011;55052;52.056;5.296;2022-12-10T04:54:40;103.82;;;26.60;;
68234;SDS011;55052;52.056;5.296;2022-12-10T04:57:09;121.82;;;27.77;;
68234;SDS011;55052;52.056;5.296;2022-12-10T04:59:37;78.53;;;27.92;;
68234;SDS011;55052;52.056;5.296;2022-12-10T05:02:04;80.72;;;24.92;;
68234;SDS011;55052;52.056;5.296;2022-12-10T05:04:31;62.25;;;25.52;;
68234;SDS011;55052;52.056;5.296;2022-12-10T05:06:58;59.15;;;24.33;;
68234;SDS011;55052;52.056;5.296;2022-12-10T05:09:25;116.32;;;28.38;;
68234;SDS011;55052;52.056;5.296;2022-12-10T05:11:52;114.93;;;25.80;;
68234;SDS011;55052;52.056;5.296;2022-12-10T05:14:19;108.28;;;24.95;;
68234;SDS011;55052;52.056;5.296;2022-12-10T05:16:48;53.95;;;21.63;;
68234;SDS011;55052;52.056;5.296;2022-12-10T05:19:15;95.78;;;24.63;;
68234;SDS011;55052;52.056;5.296;2022-12-10T05:21:45;100.28;;;22.75;;
68234;SDS011;55052;52.056;5.296;2022-12-10T05:24:30;105.25;;;22.83;;
68234;SDS011;55052;52.056;5.296;2022-12-10T05:26:57;51.95;;;21.73;;
68234;SDS011;55052;52.056;5.296;2022-12-10T05:29:24;92.68;;;22.13;;
68234;SDS011;55052;52.056;5.296;2022-12-10T05:31:51;52.00;;;20.20;;
68234;SDS011;55052;52.056;5.296;2022-12-10T05:34:18;49.40;;;20.65;;
68234;SDS011;55052;52.056;5.296;2022-12-10T05:36:45;89.47;;;21.67;;
68234;SDS011;55052;52.056;5.296;2022-12-10T05:39:12;88.18;;;21.38;;
68234;SDS011;55052;52.056;5.296;2022-12-10T05:41:38;82.07;;;20.13;;
68234;SDS011;55052;52.056;5.296;2022-12-10T05:44:06;45.45;;;19.08;;
68234;SDS011;55052;52.056;5.296;2022-12-10T05:46:35;48.60;;;20.05;;
68234;SDS011;55052;52.056;5.296;2022-12-10T05:49:02;47.97;;;19.55;;
68234;SDS011;55052;52.056;5.296;2022-12-10T05:51:32;57.40;;;21.63;;
68234;SDS011;55052;52.056;5.296;2022-12-10T05:54:00;51.50;;;20.80;;
68234;SDS011;55052;52.056;5.296;2022-12-10T05:56:29;56.60;;;20.98;;
68234;SDS011;55052;52.056;5.296;2022-12-10T05:58:57;49.65;;;20.15;;
68234;SDS011;55052;52.056;5.296;2022-12-10T06:01:27;62.27;;;22.53;;
68234;SDS011;55052;52.056;5.296;2022-12-10T06:06:24;52.15;;;21.25;;
68234;SDS011;55052;52.056;5.296;2022-12-10T06:08:53;55.95;;;21.13;;
68234;SDS011;55052;52.056;5.296;2022-12-10T06:11:20;55.30;;;20.70;;
68234;SDS011;55052;52.056;5.296;2022-12-10T06:13:48;56.65;;;21.73;;
68234;SDS011;55052;52.056;5.296;2022-12-10T06:16:21;48.70;;;20.25;;
68234;SDS011;55052;52.056;5.296;2022-12-10T06:18:49;89.38;;;21.75;;
68234;SDS011;55052;52.056;5.296;2022-12-10T06:21:16;57.40;;;20.00;;
68234;SDS011;55052;52.056;5.296;2022-12-10T06:23:44;52.15;;;21.75;;
68234;SDS011;55052;52.056;5.296;2022-12-10T06:26:12;52.72;;;19.75;;
68234;SDS011;55052;52.056;5.296;2022-12-10T06:28:41;64.72;;;23.60;;
68234;SDS011;55052;52.056;5.296;2022-12-10T06:31:11;50.33;;;21.27;;
68234;SDS011;55052;52.056;5.296;2022-12-10T06:33:38;56.25;;;22.13;;
68234;SDS011;55052;52.056;5.296;2022-12-10T06:36:05;55.35;;;21.70;;
68234;SDS011;55052;52.056;5.296;2022-12-10T06:38:33;62.22;;;20.05;;
68234;SDS011;55052;52.056;5.296;2022-12-10T06:41:06;56.40;;;20.35;;
68234;SDS011;55052;52.056;5.296;2022-12-10T06:43:35;54.83;;;20.05;;
68234;SDS011;55052;52.056;5.296;2022-12-10T06:46:09;61.85;;;21.92;;
68234;SDS011;55052;52.056;5.296;2022-12-10T06:48:38;53.03;;;20.20;;
68234;SDS011;55052;52.056;5.296;2022-12-10T06:51:05;56.00;;;21.45;;
68234;SDS011;55052;52.056;5.296;2022-12-10T06:53:33;57.03;;;21.58;;
68234;SDS011;55052;52.056;5.296;2022-12-10T06:56:01;58.13;;;21.67;;
68234;SDS011;55052;52.056;5.296;2022-12-10T06:58:29;58.45;;;22.15;;
68234;SDS011;55052;52.056;5.296;2022-12-10T07:01:05;58.35;;;22.00;;
68234;SDS011;55052;52.056;5.296;2022-12-10T07:03:34;51.33;;;21.15;;
68234;SDS011;55052;52.056;5.296;2022-12-10T07:06:01;66.85;;;22.58;;
68234;SDS011;55052;52.056;5.296;2022-12-10T07:08:29;74.25;;;23.75;;
68234;SDS011;55052;52.056;5.296;2022-12-10T07:10:56;63.50;;;22.65;;
68234;SDS011;55052;52.056;5.296;2022-12-10T07:13:23;67.68;;;23.98;;
68234;SDS011;55052;52.056;5.296;2022-12-10T07:15:56;70.45;;;23.80;;
68234;SDS011;55052;52.056;5.296;2022-12-10T07:18:23;79.97;;;23.73;;
68234;SDS011;55052;52.056;5.296;2022-12-10T07:20:49;64.93;;;21.58;;
68234;SDS011;55052;52.056;5.296;2022-12-10T07:23:16;61.83;;;23.85;;
68234;SDS011;55052;52.056;5.296;2022-12-10T07:25:43;62.25;;;22.15;;
68234;SDS011;55052;52.056;5.296;2022-12-10T07:28:10;55.67;;;20.88;;
68234;SDS011;55052;52.056;5.296;2022-12-10T07:30:37;59.83;;;20.58;;
68234;SDS011;55052;52.056;5.296;2022-12-10T07:33:03;60.10;;;22.60;;
68234;SDS011;55052;52.056;5.296;2022-12-10T07:35:30;59.70;;;21.45;;
68234;SDS011;55052;52.056;5.296;2022-12-10T07:37:57;71.25;;;21.42;;
68234;SDS011;55052;52.056;5.296;2022-12-10T07:40:24;55.50;;;20.30;;
68234;SDS011;55052;52.056;5.296;2022-12-10T07:42:50;66.82;;;21.50;;
68234;SDS011;55052;52.056;5.296;2022-12-10T07:45:17;80.35;;;21.90;;
68234;SDS011;55052;52.056;5.296;2022-12-10T07:47:44;73.10;;;22.10;;
68234;SDS011;55052;52.056;5.296;2022-12-10T07:50:11;79.93;;;22.67;;
68234;SDS011;55052;52.056;5.296;2022-12-10T07:52:37;60.15;;;21.00;;
68234;SDS011;55052;52.056;5.296;2022-12-10T07:55:04;89.75;;;21.38;;
68234;SDS011;55052;52.056;5.296;2022-12-10T07:57:31;97.28;;;21.65;;
68234;SDS011;55052;52.056;5.296;2022-12-10T07:59:58;58.55;;;21.02;;
68234;SDS011;55052;52.056;5.296;2022-12-10T08:02:25;55.67;;;20.65;;
68234;SDS011;55052;52.056;5.296;2022-12-10T08:04:51;71.13;;;21.80;;
68234;SDS011;55052;52.056;5.296;2022-12-10T08:07:18;63.75;;;21.00;;
68234;SDS011;55052;52.056;5.296;2022-12-10T08:09:45;70.22;;;23.73;;
68234;SDS011;55052;52.056;5.296;2022-12-10T08:12:12;67.55;;;22.23;;
68234;SDS011;55052;52.056;5.296;2022-12-10T08:14:38;86.47;;;22.35;;
68234;SDS011;55052;52.056;5.296;2022-12-10T08:17:05;62.20;;;23.02;;
68234;SDS011;55052;52.056;5.296;2022-12-10T08:19:32;83.63;;;22.92;;
68234;SDS011;55052;52.056;5.296;2022-12-10T08:21:59;63.67;;;22.70;;
68234;SDS011;55052;52.056;5.296;2022-12-10T08:24:25;66.63;;;21.75;;
68234;SDS011;55052;52.056;5.296;2022-12-10T08:26:52;71.43;;;20.40;;
68234;SDS011;55052;52.056;5.296;2022-12-10T08:29:19;52.35;;;19.63;;
68234;SDS011;55052;52.056;5.296;2022-12-10T08:31:46;72.00;;;20.92;;
68234;SDS011;55052;52.056;5.296;2022-12-10T08:34:14;54.67;;;20.35;;
68234;SDS011;55052;52.056;5.296;2022-12-10T08:36:43;48.33;;;20.17;;
68234;SDS011;55052;52.056;5.296;2022-12-10T08:39:11;51.28;;;18.77;;
68234;SDS011;55052;52.056;5.296;2022-12-10T08:41:43;56.80;;;19.90;;
68234;SDS011;55052;52.056;5.296;2022-12-10T08:44:12;51.58;;;18.92;;
68234;SDS011;55052;52.056;5.296;2022-12-10T08:46:39;58.63;;;19.13;;
68234;SDS011;55052;52.056;5.296;2022-12-10T08:49:06;48.08;;;19.15;;
68234;SDS011;55052;52.056;5.296;2022-12-10T08:51:33;72.50;;;18.92;;
68234;SDS011;55052;52.056;5.296;2022-12-10T08:54:00;87.05;;;22.25;;
68234;SDS011;55052;52.056;5.296;2022-12-10T08:56:27;42.70;;;17.20;;
68234;SDS011;55052;52.056;5.296;2022-12-10T08:58:54;49.60;;;17.73;;
68234;SDS011;55052;52.056;5.296;2022-12-10T09:01:21;48.40;;;17.40;;
68234;SDS011;55052;52.056;5.296;2022-12-10T09:03:48;47.72;;;18.25;;
68234;SDS011;55052;52.056;5.296;2022-12-10T09:06:17;45.78;;;17.65;;
68234;SDS011;55052;52.056;5.296;2022-12-10T09:08:45;50.90;;;18.05;;
68234;SDS011;55052;52.056;5.296;2022-12-10T09:11:14;47.83;;;17.20;;
68234;SDS011;55052;52.056;5.296;2022-12-10T09:13:50;54.35;;;16.80;;
68234;SDS011;55052;52.056;5.296;2022-12-10T09:16:17;57.55;;;17.75;;
68234;SDS011;55052;52.056;5.296;2022-12-10T09:18:45;56.38;;;17.27;;
68234;SDS011;55052;52.056;5.296;2022-12-10T09:21:12;56.63;;;18.75;;
68234;SDS011;55052;52.056;5.296;2022-12-10T09:23:41;49.50;;;18.53;;
68234;SDS011;55052;52.056;5.296;2022-12-10T09:26:09;47.65;;;17.85;;
68234;SDS011;55052;52.056;5.296;2022-12-10T09:28:38;50.42;;;19.65;;
68234;SDS011;55052;52.056;5.296;2022-12-10T09:31:05;49.67;;;17.45;;
68234;SDS011;55052;52.056;5.296;2022-12-10T09:33:40;62.72;;;18.73;;
68234;SDS011;55052;52.056;5.296;2022-12-10T09:36:09;68.60;;;19.10;;
68234;SDS011;55052;52.056;5.296;2022-12-10T09:38:37;71.75;;;17.98;;
68234;SDS011;55052;52.056;5.296;2022-12-10T09:46:59;59.20;;;19.05;;
68234;SDS011;55052;52.056;5.296;2022-12-10T09:52:11;54.17;;;17.85;;
68234;SDS011;55052;52.056;5.296;2022-12-10T09:54:42;54.33;;;17.63;;
68234;SDS011;55052;52.056;5.296;2022-12-10T09:57:34;51.38;;;18.80;;
68234;SDS011;55052;52.056;5.296;2022-12-10T10:02:45;54.88;;;17.75;;
68234;SDS011;55052;52.056;5.296;2022-12-10T10:05:16;57.10;;;18.80;;
68234;SDS011;55052;52.056;5.296;2022-12-10T10:07:53;53.50;;;18.08;;
68234;SDS011;55052;52.056;5.296;2022-12-10T10:10:27;56.90;;;18.45;;
68234;SDS011;55052;52.056;5.296;2022-12-10T10:13:11;63.25;;;20.05;;
68234;SDS011;55052;52.056;5.296;2022-12-10T10:15:51;66.33;;;19.73;;
68234;SDS011;55052;52.056;5.296;2022-12-10T10:21:05;59.25;;;21.60;;
68234;SDS011;55052;52.056;5.296;2022-12-10T10:23:40;49.22;;;18.85;;
68234;SDS011;55052;52.056;5.296;2022-12-10T10:26:09;63.38;;;18.17;;
68234;SDS011;55052;52.056;5.296;2022-12-10T10:28:36;54.78;;;19.20;;
68234;SDS011;55052;52.056;5.296;2022-12-10T10:31:15;57.13;;;19.38;;
68234;SDS011;55052;52.056;5.296;2022-12-10T10:33:48;57.08;;;18.50;;
68234;SDS011;55052;52.056;5.296;2022-12-10T10:36:27;57.05;;;17.85;;
68234;SDS011;55052;52.056;5.296;2022-12-10T10:38:57;45.95;;;16.63;;
68234;SDS011;55052;52.056;5.296;2022-12-10T10:41:35;55.03;;;18.83;;
68234;SDS011;55052;52.056;5.296;2022-12-10T10:44:07;45.35;;;17.52;;
68234;SDS011;55052;52.056;5.296;2022-12-10T10:46:44;72.18;;;17.70;;
68234;SDS011;55052;52.056;5.296;2022-12-10T10:52:20;45.72;;;17.38;;
68234;SDS011;55052;52.056;5.296;2022-12-10T10:54:46;53.83;;;18.13;;
68234;SDS011;55052;52.056;5.296;2022-12-10T11:00:07;50.65;;;19.10;;
68234;SDS011;55052;52.056;5.296;2022-12-10T11:02:45;53.58;;;19.90;;
68234;SDS011;55052;52.056;5.296;2022-12-10T11:05:30;52.20;;;18.75;;
68234;SDS011;55052;52.056;5.296;2022-12-10T11:08:03;47.33;;;17.60;;
68234;SDS011;55052;52.056;5.296;2022-12-10T11:10:31;47.83;;;16.85;;
68234;SDS011;55052;52.056;5.296;2022-12-10T11:15:35;56.90;;;18.15;;
68234;SDS011;55052;52.056;5.296;2022-12-10T11:23:39;59.00;;;16.43;;
68234;SDS011;55052;52.056;5.296;2022-12-10T11:42:10;63.67;;;18.15;;
68234;SDS011;55052;52.056;5.296;2022-12-10T11:44:49;45.33;;;16.13;;
68234;SDS011;55052;52.056;5.296;2022-12-10T11:50:15;46.65;;;16.85;;
68234;SDS011;55052;52.056;5.296;2022-12-10T11:52:53;62.72;;;19.23;;
68234;SDS011;55052;52.056;5.296;2022-12-10T11:55:38;56.33;;;18.55;;
68234;SDS011;55052;52.056;5.296;2022-12-10T12:03:55;58.80;;;18.73;;
68234;SDS011;55052;52.056;5.296;2022-12-10T12:12:41;54.72;;;18.80;;
68234;SDS011;55052;52.056;5.296;2022-12-10T12:15:14;55.90;;;19.05;;
68234;SDS011;55052;52.056;5.296;2022-12-10T12:17:49;54.05;;;17.80;;
68234;SDS011;55052;52.056;5.296;2022-12-10T12:23:38;59.50;;;20.25;;
68234;SDS011;55052;52.056;5.296;2022-12-10T12:26:29;53.35;;;17.88;;
68234;SDS011;55052;52.056;5.296;2022-12-10T12:31:52;56.55;;;18.85;;
68234;SDS011;55052;52.056;5.296;2022-12-10T12:37:10;59.63;;;17.38;;
68234;SDS011;55052;52.056;5.296;2022-12-10T12:47:46;50.05;;;18.38;;
68234;SDS011;55052;52.056;5.296;2022-12-10T12:50:30;50.53;;;17.88;;
68234;SDS011;55052;52.056;5.296;2022-12-10T12:53:09;54.20;;;17.85;;
68234;SDS011;55052;52.056;5.296;2022-12-10T12:55:44;52.70;;;18.35;;
68234;SDS011;55052;52.056;5.296;2022-12-10T13:01:18;48.58;;;16.70;;
68234;SDS011;55052;52.056;5.296;2022-12-10T13:03:59;45.65;;;17.52;;
68234;SDS011;55052;52.056;5.296;2022-12-10T13:06:27;50.80;;;18.05;;
68234;SDS011;55052;52.056;5.296;2022-12-10T13:11:39;55.00;;;19.73;;
68234;SDS011;55052;52.056;5.296;2022-12-10T13:14:28;60.20;;;19.15;;
68234;SDS011;55052;52.056;5.296;2022-12-10T13:19:40;54.88;;;18.35;;
68234;SDS011;55052;52.056;5.296;2022-12-10T13:27:40;50.65;;;18.90;;
68234;SDS011;55052;52.056;5.296;2022-12-10T13:33:03;50.67;;;18.25;;
68234;SDS011;55052;52.056;5.296;2022-12-10T13:35:50;47.20;;;18.00;;
68234;SDS011;55052;52.056;5.296;2022-12-10T13:38:34;63.20;;;17.95;;
68234;SDS011;55052;52.056;5.296;2022-12-10T13:41:07;45.95;;;18.95;;
68234;SDS011;55052;52.056;5.296;2022-12-10T13:49:30;63.40;;;18.75;;
68234;SDS011;55052;52.056;5.296;2022-12-10T13:52:07;57.63;;;19.52;;
68234;SDS011;55052;52.056;5.296;2022-12-10T14:00:28;58.13;;;17.88;;
68234;SDS011;55052;52.056;5.296;2022-12-10T14:08:26;59.53;;;20.42;;
68234;SDS011;55052;52.056;5.296;2022-12-10T14:10:56;57.20;;;19.23;;
68234;SDS011;55052;52.056;5.296;2022-12-10T14:13:44;59.15;;;21.67;;
68234;SDS011;55052;52.056;5.296;2022-12-10T14:16:16;61.65;;;20.60;;
68234;SDS011;55052;52.056;5.296;2022-12-10T14:18:51;57.65;;;20.20;;
68234;SDS011;55052;52.056;5.296;2022-12-10T14:21:23;53.92;;;19.08;;
68234;SDS011;55052;52.056;5.296;2022-12-10T14:23:51;55.00;;;19.67;;
68234;SDS011;55052;52.056;5.296;2022-12-10T14:26:31;73.25;;;21.30;;
68234;SDS011;55052;52.056;5.296;2022-12-10T14:29:11;63.58;;;21.42;;
68234;SDS011;55052;52.056;5.296;2022-12-10T14:31:53;70.07;;;21.52;;
68234;SDS011;55052;52.056;5.296;2022-12-10T14:34:25;63.88;;;21.73;;
68234;SDS011;55052;52.056;5.296;2022-12-10T14:36:55;57.13;;;20.23;;
68234;SDS011;55052;52.056;5.296;2022-12-10T14:39:26;61.25;;;21.05;;
68234;SDS011;55052;52.056;5.296;2022-12-10T14:41:58;49.80;;;17.85;;
68234;SDS011;55052;52.056;5.296;2022-12-10T14:44:27;53.25;;;17.17;;
68234;SDS011;55052;52.056;5.296;2022-12-10T14:47:06;59.40;;;21.65;;
68234;SDS011;55052;52.056;5.296;2022-12-10T14:49:43;59.53;;;19.90;;
68234;SDS011;55052;52.056;5.296;2022-12-10T14:52:16;53.20;;;17.83;;
68234;SDS011;55052;52.056;5.296;2022-12-10T14:54:45;57.15;;;18.17;;
68234;SDS011;55052;52.056;5.296;2022-12-10T14:57:17;69.30;;;21.27;;
68234;SDS011;55052;52.056;5.296;2022-12-10T15:00:02;63.53;;;20.27;;
68234;SDS011;55052;52.056;5.296;2022-12-10T15:02:34;78.20;;;23.75;;
68234;SDS011;55052;52.056;5.296;2022-12-10T15:05:09;71.47;;;21.80;;
68234;SDS011;55052;52.056;5.296;2022-12-10T15:07:38;62.60;;;19.38;;
68234;SDS011;55052;52.056;5.296;2022-12-10T15:10:07;60.90;;;20.38;;
68234;SDS011;55052;52.056;5.296;2022-12-10T15:12:47;58.15;;;20.77;;
68234;SDS011;55052;52.056;5.296;2022-12-10T15:15:19;66.00;;;20.73;;
68234;SDS011;55052;52.056;5.296;2022-12-10T15:17:55;68.03;;;23.38;;
68234;SDS011;55052;52.056;5.296;2022-12-10T15:28:27;66.05;;;21.95;;
68234;SDS011;55052;52.056;5.296;2022-12-10T15:30:57;62.55;;;21.85;;
68234;SDS011;55052;52.056;5.296;2022-12-10T15:33:58;67.22;;;22.17;;
68234;SDS011;55052;52.056;5.296;2022-12-10T15:36:36;65.60;;;21.48;;
68234;SDS011;55052;52.056;5.296;2022-12-10T15:41:52;65.78;;;21.60;;
68234;SDS011;55052;52.056;5.296;2022-12-10T15:47:17;57.97;;;20.08;;
68234;SDS011;55052;52.056;5.296;2022-12-10T15:49:46;65.85;;;20.33;;
68234;SDS011;55052;52.056;5.296;2022-12-10T15:52:14;77.45;;;20.77;;
68234;SDS011;55052;52.056;5.296;2022-12-10T15:54:51;58.53;;;20.67;;
68234;SDS011;55052;52.056;5.296;2022-12-10T15:59:51;48.13;;;17.77;;
68234;SDS011;55052;52.056;5.296;2022-12-10T16:04:59;59.95;;;18.45;;
68234;SDS011;55052;52.056;5.296;2022-12-10T16:07:26;59.53;;;20.25;;
68234;SDS011;55052;52.056;5.296;2022-12-10T16:09:53;51.53;;;19.45;;
68234;SDS011;55052;52.056;5.296;2022-12-10T16:12:19;58.60;;;20.50;;
68234;SDS011;55052;52.056;5.296;2022-12-10T16:14:47;53.63;;;19.58;;
68234;SDS011;55052;52.056;5.296;2022-12-10T16:17:22;55.53;;;18.83;;
68234;SDS011;55052;52.056;5.296;2022-12-10T16:19:49;51.33;;;19.25;;
68234;SDS011;55052;52.056;5.296;2022-12-10T16:22:15;53.92;;;18.60;;
68234;SDS011;55052;52.056;5.296;2022-12-10T16:24:42;55.70;;;18.35;;
68234;SDS011;55052;52.056;5.296;2022-12-10T16:27:11;57.63;;;18.48;;
68234;SDS011;55052;52.056;5.296;2022-12-10T16:29:39;54.88;;;18.17;;
68234;SDS011;55052;52.056;5.296;2022-12-10T16:32:08;51.85;;;19.65;;
68234;SDS011;55052;52.056;5.296;2022-12-10T16:34:36;45.30;;;17.17;;
68234;SDS011;55052;52.056;5.296;2022-12-10T16:37:03;44.22;;;15.75;;
68234;SDS011;55052;52.056;5.296;2022-12-10T16:39:31;48.53;;;17.13;;
68234;SDS011;55052;52.056;5.296;2022-12-10T16:41:58;50.28;;;17.35;;
68234;SDS011;55052;52.056;5.296;2022-12-10T16:44:25;55.22;;;17.67;;
68234;SDS011;55052;52.056;5.296;2022-12-10T16:46:52;57.17;;;16.67;;
68234;SDS011;55052;52.056;5.296;2022-12-10T16:49:18;62.88;;;19.33;;
68234;SDS011;55052;52.056;5.296;2022-12-10T16:51:45;60.90;;;17.02;;
68234;SDS011;55052;52.056;5.296;2022-12-10T16:54:12;47.78;;;17.10;;
68234;SDS011;55052;52.056;5.296;2022-12-10T16:56:39;44.80;;;16.40;;
68234;SDS011;55052;52.056;5.296;2022-12-10T16:59:08;46.17;;;17.45;;
68234;SDS011;55052;52.056;5.296;2022-12-10T17:01:36;57.35;;;18.10;;
68234;SDS011;55052;52.056;5.296;2022-12-10T17:04:03;51.47;;;18.13;;
68234;SDS011;55052;52.056;5.296;2022-12-10T17:06:30;55.03;;;17.67;;